createdAt,value
2018-03-02T00:00:02.184Z,67.96
2018-03-02T00:02:37.271Z,68.22
2018-03-02T00:05:12.701Z,68.04
2018-03-02T00:07:47.531Z,68.06
2018-03-02T00:10:22.363Z,68.33
2018-03-02T00:12:56.943Z,68.45
2018-03-02T00:15:32.216Z,68.76
2018-03-02T00:18:07.096Z,68.92
2018-03-02T00:20:42.265Z,68.90
2018-03-02T00:23:16.887Z,69.15
2018-03-02T00:25:52.151Z,69.37
2018-03-02T00:28:27.193Z,69.54
2018-03-02T00:31:02.448Z,69.53
2018-03-02T00:33:36.659Z,69.72
2018-03-02T00:36:11.988Z,69.67
2018-03-02T00:38:47.015Z,69.86
2018-03-02T00:41:22.089Z,69.84
2018-03-02T00:43:56.907Z,69.61
2018-03-02T00:46:32.087Z,69.80
2018-03-02T00:49:07.104Z,69.50
2018-03-02T00:51:42.108Z,69.57
2018-03-02T00:54:17.436Z,69.72
2018-03-02T00:56:52.568Z,69.87
2018-03-02T00:59:28.132Z,69.89
2018-03-02T01:02:03.167Z,70.17
2018-03-02T01:04:38.443Z,70.27
2018-03-02T01:07:14.010Z,70.52
2018-03-02T01:09:48.364Z,70.61
2018-03-02T01:12:23.204Z,70.59
2018-03-02T01:14:58.268Z,70.49
2018-03-02T01:17:33.806Z,70.65
2018-03-02T01:20:09.059Z,70.35
2018-03-02T01:22:44.363Z,70.22
2018-03-02T01:25:19.470Z,70.60
2018-03-02T01:27:54.135Z,70.35
2018-03-02T01:30:29.027Z,70.08
2018-03-02T01:33:04.285Z,70.42
2018-03-02T01:35:39.096Z,70.31
2018-03-02T01:38:13.851Z,70.19
2018-03-02T01:40:48.147Z,70.28
2018-03-02T01:43:23.079Z,70.63
2018-03-02T01:45:58.315Z,70.98
2018-03-02T01:48:33.123Z,71.03
2018-03-02T01:51:08.583Z,71.16
2018-03-02T01:53:44.261Z,71.32
2018-03-02T01:56:18.608Z,71.11
2018-03-02T01:58:53.759Z,70.72
2018-03-02T02:01:29.216Z,70.81
2018-03-02T02:04:04.193Z,70.89
2018-03-02T02:06:39.592Z,71.12
2018-03-02T02:09:14.541Z,71.13
2018-03-02T02:11:49.880Z,71.08
2018-03-02T02:14:25.119Z,70.86
2018-03-02T02:17:00.677Z,71.07
2018-03-02T02:19:36.200Z,71.21
2018-03-02T02:22:11.399Z,71.20
2018-03-02T02:24:46.685Z,71.19
2018-03-02T02:27:22.023Z,70.81
2018-03-02T02:29:57.048Z,71.15
2018-03-02T02:32:32.336Z,71.27
2018-03-02T02:35:07.512Z,71.30
2018-03-02T02:37:42.256Z,71.34
2018-03-02T02:40:17.309Z,71.10
2018-03-02T02:42:52.554Z,71.38
2018-03-02T02:45:27.290Z,71.40
2018-03-02T02:48:02.490Z,71.19
2018-03-02T02:50:38.120Z,71.17
2018-03-02T02:53:13.253Z,71.46
2018-03-02T02:55:48.615Z,71.57
2018-03-02T02:58:23.228Z,71.66
2018-03-02T03:00:59.017Z,71.81
2018-03-02T03:03:33.753Z,71.75
2018-03-02T03:06:09.080Z,71.35
2018-03-02T03:08:44.811Z,71.28
2018-03-02T03:11:19.652Z,71.57
2018-03-02T03:13:54.591Z,71.61
2018-03-02T03:16:29.319Z,72.06
2018-03-02T03:19:04.479Z,71.98
2018-03-02T03:21:39.283Z,71.86
2018-03-02T03:24:14.364Z,71.68
2018-03-02T03:26:49.687Z,71.62
2018-03-02T03:29:24.624Z,71.67
2018-03-02T03:31:59.976Z,71.93
2018-03-02T03:34:35.280Z,72.27
2018-03-02T03:37:09.309Z,72.05
2018-03-02T03:39:44.385Z,71.80
2018-03-02T03:42:18.757Z,71.85
2018-03-02T03:44:53.352Z,71.95
2018-03-02T03:47:28.255Z,72.19
2018-03-02T03:50:03.632Z,72.32
2018-03-02T03:52:38.762Z,72.62
2018-03-02T03:55:14.321Z,72.79
2018-03-02T03:57:49.720Z,72.72
2018-03-02T04:00:24.417Z,73.31
2018-03-02T04:02:58.427Z,73.10
2018-03-02T04:05:32.950Z,73.00
2018-03-02T04:08:07.579Z,72.95
2018-03-02T04:10:42.683Z,73.03
2018-03-02T04:13:17.911Z,73.19
2018-03-02T04:15:52.995Z,72.97
2018-03-02T04:18:28.373Z,72.96
2018-03-02T04:21:03.467Z,72.72
2018-03-02T04:23:38.495Z,73.12
2018-03-02T04:26:13.435Z,73.13
2018-03-02T04:28:48.310Z,72.78
2018-03-02T04:31:22.899Z,72.61
2018-03-02T04:33:57.733Z,72.55
2018-03-02T04:36:32.418Z,72.88
2018-03-02T04:39:07.631Z,73.34
2018-03-02T04:41:42.387Z,73.64
2018-03-02T04:44:16.771Z,74.34
2018-03-02T04:46:51.625Z,74.14
2018-03-02T04:49:27.074Z,74.14
2018-03-02T04:52:03.317Z,74.18
2018-03-02T04:54:38.686Z,74.40
2018-03-02T04:57:13.660Z,74.38
2018-03-02T04:59:48.411Z,74.29
2018-03-02T05:02:23.396Z,74.58
2018-03-02T05:04:58.334Z,74.94
2018-03-02T05:07:32.847Z,74.33
2018-03-02T05:10:08.010Z,74.24
2018-03-02T05:12:42.726Z,74.30
2018-03-02T05:15:17.555Z,74.28
2018-03-02T05:17:52.720Z,74.01
2018-03-02T05:20:27.875Z,74.04
2018-03-02T05:23:03.259Z,74.24
2018-03-02T05:25:37.878Z,74.39
2018-03-02T05:28:12.697Z,74.50
2018-03-02T05:30:47.676Z,74.32
2018-03-02T05:33:22.075Z,74.29
2018-03-02T05:35:56.652Z,74.06
2018-03-02T05:38:31.685Z,73.84
2018-03-02T05:41:06.033Z,74.04
2018-03-02T05:43:40.663Z,74.03
2018-03-02T05:46:15.659Z,74.03
2018-03-02T05:48:50.729Z,74.03
2018-03-02T05:51:25.840Z,74.02
2018-03-02T05:54:01.306Z,73.89
2018-03-02T05:56:35.880Z,74.04
2018-03-02T05:59:10.607Z,74.52
2018-03-02T06:01:45.785Z,74.45
2018-03-02T06:04:20.979Z,74.71
2018-03-02T06:06:56.277Z,74.93
2018-03-02T06:09:30.959Z,75.04
2018-03-02T06:12:06.650Z,75.38
2018-03-02T06:14:41.823Z,75.49
2018-03-02T06:17:16.687Z,75.35
2018-03-02T06:19:51.174Z,75.32
2018-03-02T06:22:26.060Z,75.42
2018-03-02T06:25:00.399Z,75.07
2018-03-02T06:27:35.155Z,75.49
2018-03-02T06:30:09.912Z,76.17
2018-03-02T06:32:45.350Z,76.43
2018-03-02T06:35:19.833Z,75.89
2018-03-02T06:37:54.546Z,75.97
2018-03-02T06:40:29.328Z,75.76
2018-03-02T06:43:04.068Z,75.57
2018-03-02T06:45:39.116Z,75.14
2018-03-02T06:48:14.120Z,75.12
2018-03-02T06:50:49.003Z,75.16
2018-03-02T06:53:23.831Z,75.19
2018-03-02T06:55:58.290Z,74.74
2018-03-02T06:58:33.179Z,74.64
2018-03-02T07:01:08.127Z,74.06
2018-03-02T07:03:43.389Z,73.89
2018-03-02T07:06:18.251Z,73.97
2018-03-02T07:08:52.896Z,74.00
2018-03-02T07:11:27.939Z,73.92
2018-03-02T07:14:02.912Z,73.74
2018-03-02T07:16:37.736Z,73.71
2018-03-02T07:19:13.024Z,73.01
2018-03-02T07:21:48.163Z,73.05
2018-03-02T07:24:22.684Z,72.22
2018-03-02T07:26:57.239Z,72.13
2018-03-02T07:29:32.417Z,72.85
2018-03-02T07:32:06.967Z,73.37
2018-03-02T07:34:42.102Z,73.52
2018-03-02T07:37:17.095Z,73.63
2018-03-02T07:39:51.939Z,73.55
2018-03-02T07:42:27.294Z,73.45
2018-03-02T07:45:02.024Z,73.18
2018-03-02T07:47:36.147Z,72.98
2018-03-02T07:50:11.384Z,72.37
2018-03-02T07:52:47.043Z,71.27
2018-03-02T07:55:21.208Z,71.64
2018-03-02T07:57:56.103Z,71.09
2018-03-02T08:00:31.224Z,70.30
2018-03-02T08:03:05.862Z,69.93
2018-03-02T08:05:40.432Z,70.33
2018-03-02T08:08:15.098Z,70.51
2018-03-02T08:10:49.562Z,70.91
2018-03-02T08:13:24.575Z,71.30
2018-03-02T08:15:59.176Z,71.37
2018-03-02T08:18:33.675Z,70.47
2018-03-02T08:21:09.215Z,70.29
2018-03-02T08:23:43.643Z,70.92
2018-03-02T08:26:18.895Z,70.14
2018-03-02T08:28:54.128Z,69.61
2018-03-02T08:31:28.676Z,68.98
2018-03-02T08:34:03.359Z,68.34
2018-03-02T08:36:38.151Z,67.92
2018-03-02T08:39:13.232Z,67.73
2018-03-02T08:41:48.545Z,67.36
2018-03-02T08:44:23.248Z,66.92
2018-03-02T08:46:58.871Z,67.12
2018-03-02T08:49:34.097Z,67.30
2018-03-02T08:52:09.296Z,66.84
2018-03-02T08:54:45.555Z,67.28
2018-03-02T08:57:20.301Z,67.59
2018-03-02T08:59:54.580Z,67.61
2018-03-02T09:02:29.289Z,67.66
2018-03-02T09:05:04.436Z,67.61
2018-03-02T09:07:39.407Z,67.23
2018-03-02T09:10:13.907Z,67.05
2018-03-02T09:12:49.511Z,66.85
2018-03-02T09:15:24.547Z,66.82
2018-03-02T09:17:59.537Z,67.12
2018-03-02T09:20:34.315Z,65.56
2018-03-02T09:23:09.708Z,65.06
2018-03-02T09:25:45.627Z,64.99
2018-03-02T09:28:20.471Z,63.84
2018-03-02T09:30:55.627Z,63.56
2018-03-02T09:33:30.691Z,62.97
2018-03-02T09:36:05.391Z,62.53
2018-03-02T09:38:40.307Z,62.23
2018-03-02T09:41:15.339Z,61.75
2018-03-02T09:43:50.421Z,61.74
2018-03-02T09:46:25.551Z,60.66
2018-03-02T09:49:01.503Z,60.63
2018-03-02T09:51:35.831Z,61.38
2018-03-02T09:54:10.839Z,60.99
2018-03-02T09:56:46.431Z,60.59
2018-03-02T09:59:21.405Z,60.50
2018-03-02T10:01:56.261Z,60.11
2018-03-02T10:04:30.701Z,60.08
2018-03-02T10:07:05.701Z,60.39
2018-03-02T10:09:40.624Z,61.09
2018-03-02T10:12:15.285Z,60.22
2018-03-02T10:14:50.244Z,60.64
2018-03-02T10:17:25.348Z,60.86
2018-03-02T10:20:00.309Z,60.90
2018-03-02T10:22:35.278Z,61.12
2018-03-02T10:25:10.454Z,60.18
2018-03-02T10:27:45.859Z,59.76
2018-03-02T10:30:20.382Z,60.44
2018-03-02T10:32:55.137Z,60.20
2018-03-02T10:35:29.552Z,58.72
2018-03-02T10:38:04.603Z,58.70
2018-03-02T10:40:39.755Z,58.26
2018-03-02T10:43:14.464Z,58.61
2018-03-02T10:45:49.363Z,58.40
2018-03-02T10:48:23.715Z,58.03
2018-03-02T10:50:58.767Z,58.07
2018-03-02T10:53:33.462Z,57.86
2018-03-02T10:56:08.799Z,58.43
2018-03-02T10:58:43.948Z,58.23
2018-03-02T11:01:18.255Z,58.13
2018-03-02T11:03:58.903Z,56.69
2018-03-02T11:06:33.665Z,56.17
2018-03-02T11:09:08.531Z,56.74
2018-03-02T11:11:43.116Z,57.37
2018-03-02T11:14:17.899Z,56.50
2018-03-02T11:16:52.775Z,55.93
2018-03-02T11:19:27.352Z,55.70
2018-03-02T11:22:02.524Z,56.29
2018-03-02T11:24:37.696Z,55.57
2018-03-02T11:27:12.676Z,55.43
2018-03-02T11:29:47.923Z,55.48
2018-03-02T11:32:22.998Z,54.99
2018-03-02T11:34:57.675Z,55.56
2018-03-02T11:37:32.542Z,55.75
2018-03-02T11:40:07.789Z,54.90
2018-03-02T11:42:42.666Z,54.99
2018-03-02T11:45:17.686Z,55.42
2018-03-02T11:47:52.939Z,55.59
2018-03-02T11:50:28.123Z,55.09
2018-03-02T11:53:03.475Z,54.92
2018-03-02T11:55:38.654Z,54.79
2018-03-02T11:58:13.614Z,54.99
2018-03-02T12:00:48.752Z,55.04
2018-03-02T12:03:23.670Z,53.66
2018-03-02T12:05:58.566Z,53.18
2018-03-02T12:08:33.737Z,52.05
2018-03-02T12:11:08.704Z,51.37
2018-03-02T12:13:43.984Z,50.98
2018-03-02T12:16:18.602Z,50.74
2018-03-02T12:18:53.894Z,50.66
2018-03-02T12:21:29.038Z,52.45
2018-03-02T12:24:04.435Z,52.98
2018-03-02T12:26:39.753Z,53.08
2018-03-02T12:29:14.427Z,52.42
2018-03-02T12:31:49.418Z,51.64
2018-03-02T12:34:24.479Z,51.21
2018-03-02T12:36:59.922Z,50.51
2018-03-02T12:39:34.828Z,51.19
2018-03-02T12:42:09.638Z,51.82
2018-03-02T12:44:46.017Z,51.26
2018-03-02T12:47:20.626Z,51.52
2018-03-02T12:49:55.806Z,51.98
2018-03-02T12:52:31.556Z,52.25
2018-03-02T12:55:06.917Z,51.62
2018-03-02T12:57:42.254Z,51.31
2018-03-02T13:00:16.830Z,50.38
2018-03-02T13:02:52.060Z,50.51
2018-03-02T13:05:27.671Z,50.87
2018-03-02T13:08:03.010Z,50.00
2018-03-02T13:10:38.618Z,50.40
2018-03-02T13:13:13.381Z,50.39
2018-03-02T13:15:48.696Z,49.44
2018-03-02T13:18:35.471Z,49.65
2018-03-02T13:21:09.366Z,50.59
2018-03-02T13:23:44.401Z,50.67
2018-03-02T13:26:30.283Z,50.78
2018-03-02T13:29:05.018Z,51.16
2018-03-02T13:31:39.791Z,51.04
2018-03-02T13:34:25.989Z,50.58
2018-03-02T13:37:00.722Z,50.98
2018-03-02T13:39:46.937Z,50.55
2018-03-02T13:42:21.794Z,49.80
2018-03-02T13:44:57.033Z,50.12
2018-03-02T13:50:45.819Z,49.26
2018-03-02T13:53:20.450Z,49.00
2018-03-02T13:55:55.830Z,48.88
2018-03-02T13:58:30.830Z,49.58
2018-03-02T14:01:05.259Z,50.21
2018-03-02T14:03:51.694Z,50.50
2018-03-02T14:06:26.458Z,49.55
2018-03-02T14:09:01.186Z,49.81
2018-03-02T14:11:35.974Z,50.33
2018-03-02T14:14:11.068Z,50.47
2018-03-02T14:16:46.378Z,50.21
2018-03-02T14:19:20.954Z,50.47
2018-03-02T14:21:56.160Z,50.51
2018-03-02T14:24:31.205Z,50.72
2018-03-02T14:27:06.046Z,50.91
2018-03-02T14:29:40.842Z,51.21
2018-03-02T14:32:16.022Z,51.25
2018-03-02T14:34:51.061Z,50.84
2018-03-02T14:37:25.922Z,50.41
2018-03-02T14:40:01.157Z,51.37
2018-03-02T14:42:36.027Z,51.32
2018-03-02T14:45:11.068Z,50.94
2018-03-02T14:47:46.353Z,50.79
2018-03-02T14:50:21.066Z,50.66
2018-03-02T14:52:56.234Z,50.84
2018-03-02T14:55:31.038Z,51.66
2018-03-02T14:58:05.964Z,51.85
2018-03-02T15:00:41.094Z,51.53
2018-03-02T15:03:16.079Z,51.68
2018-03-02T15:05:51.246Z,51.95
2018-03-02T15:08:26.078Z,52.44
2018-03-02T15:11:01.014Z,53.07
2018-03-02T15:13:36.070Z,52.77
2018-03-02T15:16:10.975Z,52.90
2018-03-02T15:18:46.495Z,52.50
2018-03-02T15:21:21.107Z,52.68
2018-03-02T15:23:55.880Z,52.18
2018-03-02T15:26:30.670Z,51.89
2018-03-02T15:29:05.320Z,51.73
2018-03-02T15:31:40.390Z,52.33
2018-03-02T15:34:15.178Z,52.68
2018-03-02T15:36:50.298Z,52.52
2018-03-02T15:39:25.311Z,53.08
2018-03-02T15:42:00.455Z,53.59
2018-03-02T15:44:35.590Z,53.89
2018-03-02T15:47:10.386Z,53.73
2018-03-02T15:49:46.054Z,53.55
2018-03-02T15:52:21.079Z,54.17
2018-03-02T15:54:56.422Z,54.71
2018-03-02T15:57:30.898Z,54.18
2018-03-02T16:00:06.294Z,54.18
2018-03-02T16:02:41.150Z,54.41
2018-03-02T16:05:16.171Z,55.19
2018-03-02T16:07:50.850Z,54.70
2018-03-02T16:10:24.862Z,54.80
2018-03-02T16:13:00.165Z,55.09
2018-03-02T16:15:35.313Z,54.98
2018-03-02T16:18:10.314Z,55.44
2018-03-02T16:20:46.634Z,55.59
2018-03-02T16:23:21.314Z,55.47
2018-03-02T16:25:56.451Z,56.33
2018-03-02T16:28:31.381Z,56.98
2018-03-02T16:31:06.328Z,57.18
2018-03-02T16:33:41.382Z,57.40
2018-03-02T16:36:16.346Z,57.83
2018-03-02T16:38:51.489Z,57.54
2018-03-02T16:41:26.542Z,57.74
2018-03-02T16:44:01.593Z,57.88
2018-03-02T16:46:36.630Z,58.07
2018-03-02T16:49:11.736Z,58.50
2018-03-02T16:51:46.670Z,58.48
2018-03-02T16:54:22.213Z,58.56
2018-03-02T16:56:57.350Z,58.81
2018-03-02T17:02:25.632Z,59.10
2018-03-02T17:05:00.536Z,58.98
2018-03-02T17:07:35.654Z,58.73
2018-03-02T17:10:11.122Z,59.67
2018-03-02T17:12:46.491Z,59.93
2018-03-02T17:15:21.376Z,59.99
2018-03-02T17:17:56.774Z,60.14
2018-03-02T17:20:31.811Z,60.59
2018-03-02T17:23:06.747Z,60.50
2018-03-02T17:25:41.898Z,60.71
2018-03-02T17:28:17.431Z,60.48
2018-03-02T17:30:52.514Z,60.55
2018-03-02T17:33:27.514Z,60.63
2018-03-02T17:36:02.557Z,60.85
2018-03-02T17:38:37.398Z,61.02
2018-03-02T17:41:12.407Z,61.25
2018-03-02T17:43:47.390Z,61.90
2018-03-02T17:46:22.451Z,62.05
2018-03-02T17:48:57.179Z,62.14
2018-03-02T17:51:31.930Z,62.31
2018-03-02T17:54:07.295Z,62.27
2018-03-02T17:56:41.989Z,62.12
2018-03-02T17:59:17.339Z,62.39
2018-03-02T18:01:52.383Z,62.45
2018-03-02T18:04:27.030Z,62.08
2018-03-02T18:07:02.366Z,62.24
2018-03-02T18:09:37.407Z,62.53
2018-03-02T18:12:11.660Z,63.03
2018-03-02T18:14:46.942Z,63.04
2018-03-02T18:17:21.943Z,63.16
2018-03-02T18:19:57.098Z,63.25
2018-03-02T18:22:32.511Z,63.02
2018-03-02T18:25:07.614Z,63.09
2018-03-02T18:27:42.622Z,63.30
2018-03-02T18:30:17.682Z,63.28
2018-03-02T18:32:52.889Z,63.96
2018-03-02T18:35:27.876Z,63.96
2018-03-02T18:38:02.802Z,63.99
2018-03-02T18:40:38.398Z,64.16
2018-03-02T18:43:12.785Z,64.33
2018-03-02T18:45:47.723Z,64.36
2018-03-02T18:48:22.954Z,64.54
2018-03-02T18:50:58.099Z,64.43
2018-03-02T18:53:32.622Z,64.55
2018-03-02T18:56:07.762Z,64.75
2018-03-02T18:58:43.118Z,65.06
2018-03-02T19:01:18.228Z,64.81
2018-03-02T19:03:53.002Z,64.76
2018-03-02T19:06:27.946Z,64.94
2018-03-02T19:09:03.028Z,64.93
2018-03-02T19:11:38.087Z,64.88
2018-03-02T19:14:12.679Z,65.23
2018-03-02T19:16:48.170Z,65.51
2018-03-02T19:19:23.591Z,65.25
2018-03-02T19:21:58.952Z,65.23
2018-03-02T19:24:34.219Z,65.51
2018-03-02T19:27:09.646Z,65.72
2018-03-02T19:29:44.788Z,65.80
2018-03-02T19:32:19.715Z,65.84
2018-03-02T19:34:54.462Z,65.72
2018-03-02T19:37:29.673Z,65.64
2018-03-02T19:40:04.450Z,65.66
2018-03-02T19:42:39.838Z,65.73
2018-03-02T19:45:14.813Z,65.96
2018-03-02T19:47:50.073Z,65.87
2018-03-02T19:50:25.015Z,66.05
2018-03-02T19:53:00.206Z,66.05
2018-03-02T19:55:34.913Z,66.00
2018-03-02T19:58:09.922Z,66.05
2018-03-02T20:00:45.006Z,66.02
2018-03-02T20:03:19.811Z,65.74
2018-03-02T20:05:55.052Z,65.93
2018-03-02T20:08:29.939Z,66.10
2018-03-02T20:11:04.899Z,65.58
2018-03-02T20:13:40.116Z,65.71
2018-03-02T20:16:15.439Z,65.92
2018-03-02T20:18:50.786Z,66.37
2018-03-02T20:21:25.791Z,66.50
2018-03-02T20:24:01.078Z,66.12
2018-03-02T20:26:36.017Z,65.87
2018-03-02T20:29:11.237Z,65.83
2018-03-02T20:31:47.185Z,66.04
2018-03-02T20:34:22.286Z,66.32
2018-03-02T20:36:57.757Z,66.29
2018-03-02T20:39:32.969Z,66.51
2018-03-02T20:42:07.898Z,66.52
2018-03-02T20:44:43.273Z,66.21
2018-03-02T20:47:18.317Z,66.45
2018-03-02T20:49:53.967Z,66.59
2018-03-02T20:52:29.048Z,66.81
2018-03-02T20:55:04.023Z,66.81
2018-03-02T20:57:39.347Z,66.89
2018-03-02T21:00:14.013Z,66.63
2018-03-02T21:02:48.999Z,66.60
2018-03-02T21:05:24.091Z,66.34
2018-03-02T21:07:58.914Z,66.14
2018-03-02T21:10:34.067Z,66.13
2018-03-02T21:13:08.835Z,66.45
2018-03-02T21:15:44.035Z,66.86
2018-03-02T21:18:19.055Z,66.91
2018-03-02T21:20:53.910Z,66.84
2018-03-02T21:23:29.030Z,66.72
2018-03-02T21:26:03.986Z,66.56
2018-03-02T21:28:38.970Z,66.73
2018-03-02T21:31:14.078Z,66.91
2018-03-02T21:33:49.357Z,67.30
2018-03-02T21:36:24.149Z,67.40
2018-03-02T21:38:59.269Z,67.32
2018-03-02T21:41:34.054Z,67.45
2018-03-02T21:44:08.711Z,67.73
2018-03-02T21:46:44.078Z,67.67
2018-03-02T21:49:19.056Z,67.82
2018-03-02T21:51:54.185Z,67.62
2018-03-02T21:54:29.686Z,67.87
2018-03-02T21:57:04.346Z,67.95
2018-03-02T21:59:39.063Z,67.79
2018-03-02T22:02:13.435Z,67.90
2018-03-02T22:04:49.097Z,68.50
2018-03-02T22:07:24.982Z,68.36
2018-03-02T22:10:00.359Z,68.33
2018-03-02T22:12:35.294Z,68.36
2018-03-02T22:15:09.919Z,68.22
2018-03-02T22:17:45.098Z,67.81
2018-03-02T22:20:20.115Z,67.63
2018-03-02T22:22:55.379Z,68.10
2018-03-02T22:25:30.229Z,68.55
2018-03-02T22:28:05.978Z,68.33
2018-03-02T22:30:41.119Z,68.48
2018-03-02T22:33:16.063Z,69.23
2018-03-02T22:35:51.098Z,69.29
2018-03-02T22:38:26.370Z,68.94
2018-03-02T22:41:01.137Z,69.26
2018-03-02T22:43:36.083Z,69.28
2018-03-02T22:46:11.268Z,69.21
2018-03-02T22:48:47.615Z,69.13
2018-03-02T22:51:22.574Z,69.38
2018-03-02T22:53:58.079Z,69.45
2018-03-02T22:56:33.354Z,69.46
2018-03-02T22:59:08.502Z,69.31
2018-03-02T23:01:43.490Z,69.60
2018-03-02T23:04:18.658Z,69.48
2018-03-02T23:06:53.606Z,69.46
2018-03-02T23:09:28.594Z,69.37
2018-03-02T23:12:04.142Z,69.68
2018-03-02T23:14:39.223Z,69.86
2018-03-02T23:17:14.218Z,70.19
2018-03-02T23:19:49.519Z,70.63
2018-03-02T23:22:24.586Z,70.23
2018-03-02T23:25:00.130Z,70.20
2018-03-02T23:27:35.277Z,70.58
2018-03-02T23:30:10.117Z,70.97
2018-03-02T23:32:45.079Z,71.02
2018-03-02T23:35:20.269Z,71.07
2018-03-02T23:37:55.543Z,70.85
2018-03-02T23:40:30.415Z,70.86
2018-03-02T23:43:05.439Z,71.00
2018-03-02T23:45:40.430Z,71.12
2018-03-02T23:48:15.302Z,70.91
2018-03-02T23:50:50.542Z,70.64
2018-03-02T23:53:25.363Z,70.60
2018-03-02T23:56:00.826Z,70.41
2018-03-02T23:58:35.422Z,70.95
